createdAt,value
2018-10-06T00:00:09.151Z,25.97
2018-10-06T00:02:38.104Z,27.27
2018-10-06T00:05:06.839Z,21.63
2018-10-06T00:07:35.612Z,23.90
2018-10-06T00:10:04.355Z,21.30
2018-10-06T00:12:33.035Z,23.23
2018-10-06T00:15:01.671Z,26.67
2018-10-06T00:17:30.333Z,20.57
2018-10-06T00:19:59.299Z,25.13
2018-10-06T00:22:28.526Z,26.30
2018-10-06T00:24:57.147Z,23.77
2018-10-06T00:27:26.802Z,22.30
2018-10-06T00:29:55.834Z,26.27
2018-10-06T00:32:24.612Z,28.70
2018-10-06T00:34:53.310Z,23.80
2018-10-06T00:37:21.998Z,24.53
2018-10-06T00:39:50.734Z,25.00
2018-10-06T00:42:19.413Z,24.20
2018-10-06T00:44:48.127Z,23.33
2018-10-06T00:47:16.823Z,24.60
2018-10-06T00:49:45.389Z,24.33
2018-10-06T00:52:14.009Z,26.30
2018-10-06T00:54:42.657Z,26.73
2018-10-06T00:57:11.308Z,22.73
2018-10-06T00:59:39.915Z,29.80
2018-10-06T01:02:08.625Z,23.53
2018-10-06T01:04:37.273Z,22.40
2018-10-06T01:07:05.975Z,26.93
2018-10-06T01:09:34.683Z,24.53
2018-10-06T01:12:03.305Z,24.37
2018-10-06T01:14:32.081Z,22.97
2018-10-06T01:17:00.700Z,23.23
2018-10-06T01:19:29.287Z,26.80
2018-10-06T01:21:57.988Z,23.90
2018-10-06T01:24:26.654Z,23.70
2018-10-06T01:26:55.318Z,22.10
2018-10-06T01:29:23.913Z,25.93
2018-10-06T01:31:52.588Z,26.40
2018-10-06T01:34:21.211Z,24.47
2018-10-06T01:36:49.869Z,22.23
2018-10-06T01:39:18.508Z,28.17
2018-10-06T01:41:47.152Z,23.33
2018-10-06T01:44:15.713Z,29.57
2018-10-06T01:46:44.363Z,23.80
2018-10-06T01:49:13.009Z,25.27
2018-10-06T01:51:41.609Z,25.87
2018-10-06T01:54:10.241Z,26.53
2018-10-06T01:56:38.844Z,28.97
2018-10-06T01:59:07.773Z,25.67
2018-10-06T02:01:36.399Z,22.60
2018-10-06T02:04:05.010Z,29.13
2018-10-06T02:06:33.719Z,23.73
2018-10-06T02:09:02.362Z,23.57
2018-10-06T02:11:31.024Z,26.77
2018-10-06T02:13:59.682Z,25.47
2018-10-06T02:16:28.340Z,28.30
2018-10-06T02:18:57.034Z,25.27
2018-10-06T02:21:25.664Z,24.17
2018-10-06T02:23:54.298Z,24.53
2018-10-06T02:26:22.983Z,25.83
2018-10-06T02:28:51.618Z,25.43
2018-10-06T02:31:20.244Z,23.70
2018-10-06T02:33:48.833Z,30.70
2018-10-06T02:36:17.495Z,28.47
2018-10-06T02:38:46.140Z,23.93
2018-10-06T02:41:14.789Z,23.77
2018-10-06T02:43:43.474Z,24.20
2018-10-06T02:46:12.153Z,23.63
2018-10-06T02:48:40.855Z,22.50
2018-10-06T02:51:09.455Z,28.63
2018-10-06T02:53:38.106Z,26.57
2018-10-06T02:56:06.850Z,23.37
2018-10-06T02:58:35.841Z,22.37
2018-10-06T03:01:04.514Z,26.50
2018-10-06T03:03:33.123Z,33.13
2018-10-06T03:06:01.861Z,25.07
2018-10-06T03:08:31.441Z,28.93
2018-10-06T03:11:00.080Z,26.67
2018-10-06T03:13:28.683Z,26.87
2018-10-06T03:15:57.717Z,25.73
2018-10-06T03:18:26.423Z,27.40
2018-10-06T03:20:55.035Z,24.87
2018-10-06T03:23:23.643Z,24.63
2018-10-06T03:25:52.333Z,26.27
2018-10-06T03:28:20.987Z,27.47
2018-10-06T03:30:49.591Z,25.37
2018-10-06T03:33:18.212Z,25.63
2018-10-06T03:35:46.847Z,26.10
2018-10-06T03:38:15.469Z,28.37
2018-10-06T03:40:44.083Z,28.23
2018-10-06T03:43:12.690Z,26.50
2018-10-06T03:45:41.310Z,27.93
2018-10-06T03:48:09.990Z,28.00
2018-10-06T03:50:38.668Z,27.67
2018-10-06T03:53:07.344Z,29.27
2018-10-06T03:55:36.356Z,29.33
2018-10-06T03:58:04.949Z,26.47
2018-10-06T04:00:33.547Z,27.20
2018-10-06T04:03:02.225Z,29.27
2018-10-06T04:05:30.855Z,27.30
2018-10-06T04:07:59.487Z,27.60
2018-10-06T04:10:28.142Z,29.17
2018-10-06T04:12:56.760Z,29.10
2018-10-06T04:15:25.446Z,29.50
2018-10-06T04:17:54.071Z,29.93
2018-10-06T04:20:22.695Z,27.53
2018-10-06T04:22:51.377Z,28.80
2018-10-06T04:25:20.004Z,29.87
2018-10-06T04:27:48.623Z,30.67
2018-10-06T04:30:17.312Z,33.27
2018-10-06T04:32:45.916Z,31.10
2018-10-06T04:35:14.525Z,32.87
2018-10-06T04:37:43.167Z,33.33
2018-10-06T04:40:11.787Z,33.57
2018-10-06T04:42:40.399Z,31.53
2018-10-06T04:45:08.982Z,31.67
2018-10-06T04:47:37.633Z,31.63
2018-10-06T04:50:06.427Z,31.37
2018-10-06T04:52:35.061Z,34.63
2018-10-06T04:55:03.737Z,29.07
2018-10-06T04:57:32.458Z,30.67
2018-10-06T05:00:01.161Z,30.97
2018-10-06T05:02:29.851Z,32.37
2018-10-06T05:04:58.530Z,30.70
2018-10-06T05:07:27.108Z,30.23
2018-10-06T05:09:55.732Z,29.23
2018-10-06T05:12:24.360Z,29.93
2018-10-06T05:14:52.998Z,30.03
2018-10-06T05:17:21.660Z,31.30
2018-10-06T05:19:50.260Z,30.73
2018-10-06T05:22:18.807Z,30.87
2018-10-06T05:24:48.305Z,28.97
2018-10-06T05:27:16.893Z,29.57
2018-10-06T05:29:45.485Z,28.13
2018-10-06T05:32:14.098Z,30.03
2018-10-06T05:34:42.632Z,30.60
2018-10-06T05:37:11.246Z,29.90
2018-10-06T05:39:39.832Z,30.17
2018-10-06T05:42:08.502Z,28.47
2018-10-06T05:44:37.086Z,30.07
2018-10-06T05:47:05.774Z,28.70
2018-10-06T05:49:34.464Z,29.67
2018-10-06T05:52:03.210Z,26.50
2018-10-06T05:54:32.020Z,23.50
2018-10-06T05:57:00.634Z,26.70
2018-10-06T05:59:29.282Z,28.23
2018-10-06T06:01:57.990Z,28.47
2018-10-06T06:04:26.642Z,26.43
2018-10-06T06:06:55.368Z,23.93
2018-10-06T06:09:24.147Z,26.27
2018-10-06T06:11:52.749Z,25.10
2018-10-06T06:14:21.449Z,25.80
2018-10-06T06:16:50.141Z,25.60
2018-10-06T06:19:18.835Z,24.00
2018-10-06T06:21:47.502Z,25.83
2018-10-06T06:24:16.219Z,25.13
2018-10-06T06:26:44.868Z,24.53
2018-10-06T06:29:13.583Z,25.13
2018-10-06T06:31:42.269Z,25.10
2018-10-06T06:34:11.255Z,24.37
2018-10-06T06:36:39.989Z,22.73
2018-10-06T06:39:09.388Z,25.87
2018-10-06T06:41:38.426Z,24.40
2018-10-06T06:44:07.358Z,24.20
2018-10-06T06:46:36.058Z,22.77
2018-10-06T06:49:04.846Z,22.70
2018-10-06T06:51:33.554Z,23.27
2018-10-06T06:54:02.125Z,21.77
2018-10-06T06:56:30.759Z,25.10
2018-10-06T06:58:59.467Z,26.40
2018-10-06T07:01:28.060Z,24.83
2018-10-06T07:03:56.773Z,26.87
2018-10-06T07:06:25.751Z,22.90
2018-10-06T07:08:54.493Z,23.40
2018-10-06T07:11:23.209Z,23.90
2018-10-06T07:13:51.837Z,24.10
2018-10-06T07:16:20.594Z,22.77
2018-10-06T07:18:49.256Z,21.30
2018-10-06T07:21:17.994Z,23.30
2018-10-06T07:23:46.761Z,23.33
2018-10-06T07:26:15.427Z,22.00
2018-10-06T07:28:44.131Z,22.83
2018-10-06T07:31:12.934Z,23.27
2018-10-06T07:33:41.700Z,24.47
2018-10-06T07:36:10.390Z,24.67
2018-10-06T07:38:39.097Z,22.17
2018-10-06T07:41:07.737Z,23.83
2018-10-06T07:43:36.368Z,25.07
2018-10-06T07:46:05.139Z,22.43
2018-10-06T07:48:33.908Z,22.90
2018-10-06T07:51:02.544Z,22.60
2018-10-06T07:53:31.173Z,22.57
2018-10-06T07:55:59.873Z,22.43
2018-10-06T07:58:28.526Z,24.80
2018-10-06T08:00:57.147Z,22.07
2018-10-06T08:03:25.950Z,22.63
2018-10-06T08:05:54.606Z,23.53
2018-10-06T08:08:23.286Z,24.17
2018-10-06T08:10:51.910Z,23.43
2018-10-06T08:13:21.092Z,22.57
2018-10-06T08:15:49.770Z,23.57
2018-10-06T08:18:18.498Z,24.10
2018-10-06T08:20:47.210Z,21.03
2018-10-06T08:23:15.828Z,23.90
2018-10-06T08:25:44.559Z,24.10
2018-10-06T08:28:13.317Z,21.10
2018-10-06T08:30:42.088Z,22.33
2018-10-06T08:33:10.800Z,23.40
2018-10-06T08:35:40.192Z,22.53
2018-10-06T08:38:08.927Z,21.20
2018-10-06T08:40:37.657Z,22.27
2018-10-06T08:43:06.459Z,22.13
2018-10-06T08:45:35.154Z,23.07
2018-10-06T08:48:03.833Z,20.57
2018-10-06T08:50:32.561Z,22.90
2018-10-06T08:53:01.286Z,20.43
2018-10-06T08:55:29.971Z,21.33
2018-10-06T08:57:58.618Z,19.50
2018-10-06T09:00:27.235Z,19.40
2018-10-06T09:02:56.018Z,19.17
2018-10-06T09:05:24.774Z,18.70
2018-10-06T09:07:53.529Z,20.50
2018-10-06T09:10:22.281Z,20.87
2018-10-06T09:12:50.989Z,18.10
2018-10-06T09:15:19.653Z,16.87
2018-10-06T09:17:48.490Z,18.10
2018-10-06T09:20:17.103Z,16.57
2018-10-06T09:22:45.741Z,21.43
2018-10-06T09:25:14.358Z,16.50
2018-10-06T09:27:43.082Z,15.87
2018-10-06T09:30:11.775Z,16.80
2018-10-06T09:32:40.450Z,18.90
2018-10-06T09:35:09.139Z,14.77
2018-10-06T09:37:37.870Z,13.70
2018-10-06T09:40:06.640Z,15.67
2018-10-06T09:42:35.453Z,15.23
2018-10-06T09:45:04.182Z,16.07
2018-10-06T09:47:32.913Z,14.97
2018-10-06T09:50:01.712Z,16.40
2018-10-06T09:52:30.712Z,15.60
2018-10-06T09:54:59.511Z,15.97
2018-10-06T09:57:28.349Z,13.23
2018-10-06T09:59:57.101Z,14.23
2018-10-06T10:02:30.971Z,14.53
2018-10-06T10:05:04.875Z,14.13
2018-10-06T10:07:34.827Z,14.70
2018-10-06T10:10:04.155Z,16.83
2018-10-06T10:12:33.381Z,14.40
2018-10-06T10:15:02.027Z,16.93
2018-10-06T10:17:30.887Z,13.90
2018-10-06T10:19:59.554Z,14.30
2018-10-06T10:22:28.396Z,19.50
2018-10-06T10:24:57.058Z,12.80
2018-10-06T10:27:25.684Z,14.20
2018-10-06T10:29:54.341Z,16.30
2018-10-06T10:32:23.034Z,15.07
2018-10-06T10:34:51.801Z,13.07
2018-10-06T10:37:20.521Z,15.03
2018-10-06T10:39:49.279Z,18.17
2018-10-06T10:42:17.961Z,13.70
2018-10-06T10:44:46.714Z,14.20
2018-10-06T10:47:16.084Z,13.40
2018-10-06T10:49:44.774Z,15.43
2018-10-06T10:52:13.466Z,16.30
2018-10-06T10:54:42.123Z,13.53
2018-10-06T10:57:11.088Z,15.40
2018-10-06T10:59:39.918Z,14.27
2018-10-06T11:02:08.634Z,19.17
2018-10-06T11:04:38.395Z,11.83
2018-10-06T11:07:07.246Z,12.20
2018-10-06T11:09:36.017Z,12.43
2018-10-06T11:12:04.704Z,11.47
2018-10-06T11:14:33.338Z,14.10
2018-10-06T11:17:02.092Z,15.83
2018-10-06T11:19:30.870Z,13.90
2018-10-06T11:21:59.613Z,10.80
2018-10-06T11:24:28.737Z,13.47
2018-10-06T11:26:57.572Z,12.53
2018-10-06T11:29:26.390Z,14.07
2018-10-06T11:31:55.229Z,12.63
2018-10-06T11:34:24.119Z,12.13
2018-10-06T11:36:53.053Z,12.23
2018-10-06T11:39:21.728Z,12.37
2018-10-06T11:41:50.391Z,10.60
2018-10-06T11:44:19.766Z,17.57
2018-10-06T11:46:48.489Z,12.17
2018-10-06T11:49:17.241Z,12.90
2018-10-06T11:51:46.062Z,10.53
2018-10-06T11:54:14.870Z,10.00
2018-10-06T11:56:43.714Z,9.97
2018-10-06T11:59:12.476Z,10.73
2018-10-06T12:01:41.372Z,10.50
2018-10-06T12:04:10.092Z,9.93
2018-10-06T12:06:38.860Z,11.57
2018-10-06T12:09:08.681Z,8.87
2018-10-06T12:11:37.601Z,11.57
2018-10-06T12:14:06.549Z,10.00
2018-10-06T12:16:35.560Z,9.87
2018-10-06T12:19:04.777Z,10.40
2018-10-06T12:21:33.552Z,7.50
2018-10-06T12:24:03.639Z,9.93
2018-10-06T12:26:32.403Z,11.50
2018-10-06T12:29:01.240Z,8.07
2018-10-06T12:31:30.054Z,10.43
2018-10-06T12:33:58.779Z,9.00
2018-10-06T12:36:27.541Z,11.50
2018-10-06T12:38:56.153Z,10.33
2018-10-06T12:41:24.938Z,9.03
2018-10-06T12:43:53.794Z,12.07
2018-10-06T12:46:22.559Z,8.30
2018-10-06T12:48:51.341Z,11.43
2018-10-06T12:51:20.193Z,11.60
2018-10-06T12:53:48.969Z,8.43
2018-10-06T12:56:17.687Z,7.37
2018-10-06T12:58:46.375Z,12.40
2018-10-06T13:01:16.136Z,7.87
2018-10-06T13:03:45.001Z,6.83
2018-10-06T13:06:14.356Z,8.90
2018-10-06T13:08:43.320Z,7.73
2018-10-06T13:11:12.084Z,10.23
2018-10-06T13:13:40.904Z,7.83
2018-10-06T13:16:09.690Z,7.93
2018-10-06T13:18:39.981Z,8.87
2018-10-06T13:21:08.800Z,7.13
2018-10-06T13:23:37.564Z,8.03
2018-10-06T13:26:06.335Z,9.93
2018-10-06T13:28:35.225Z,6.53
2018-10-06T13:31:04.059Z,8.63
2018-10-06T13:33:32.989Z,7.63
2018-10-06T13:36:01.807Z,7.50
2018-10-06T13:38:30.465Z,9.53
2018-10-06T13:40:59.235Z,7.97
2018-10-06T13:43:28.057Z,9.80
2018-10-06T13:45:58.023Z,9.27
2018-10-06T13:48:28.883Z,8.30
2018-10-06T13:50:57.744Z,9.17
2018-10-06T13:53:26.634Z,10.17
2018-10-06T13:55:57.376Z,8.77
2018-10-06T13:58:26.353Z,8.80
2018-10-06T14:00:55.134Z,8.30
2018-10-06T14:03:23.981Z,6.97
2018-10-06T14:05:52.712Z,8.27
2018-10-06T14:08:21.546Z,7.23
2018-10-06T14:10:50.332Z,9.77
2018-10-06T14:13:20.126Z,9.53
2018-10-06T14:15:48.804Z,6.97
2018-10-06T14:18:17.562Z,7.07
2018-10-06T14:20:46.362Z,9.00
2018-10-06T14:23:15.089Z,8.47
2018-10-06T14:25:43.814Z,9.07
2018-10-06T14:28:12.611Z,8.57
2018-10-06T14:30:41.317Z,9.37
2018-10-06T14:33:10.137Z,7.50
2018-10-06T14:35:38.872Z,9.70
2018-10-06T14:38:08.819Z,12.10
2018-10-06T14:40:37.649Z,11.47
2018-10-06T14:43:06.404Z,10.43
2018-10-06T14:45:35.774Z,11.73
2018-10-06T14:48:05.063Z,8.50
2018-10-06T14:50:34.518Z,11.60
2018-10-06T14:53:03.204Z,11.13
2018-10-06T14:55:31.838Z,9.67
2018-10-06T14:58:00.706Z,11.20
2018-10-06T15:00:30.077Z,11.97
2018-10-06T15:03:01.370Z,13.27
2018-10-06T15:05:30.594Z,14.23
2018-10-06T15:07:59.271Z,11.43
2018-10-06T15:10:28.111Z,13.93
2018-10-06T15:12:56.751Z,13.80
2018-10-06T15:15:25.583Z,14.37
2018-10-06T15:17:54.333Z,16.53
2018-10-06T15:20:23.010Z,14.60
2018-10-06T15:22:51.792Z,12.63
2018-10-06T15:25:20.661Z,14.23
2018-10-06T15:27:49.565Z,15.10
2018-10-06T15:30:19.600Z,14.53
2018-10-06T15:32:48.884Z,15.57
2018-10-06T15:35:17.627Z,13.70
2018-10-06T15:37:46.624Z,14.53
2018-10-06T15:40:15.355Z,16.40
2018-10-06T15:42:43.998Z,16.10
2018-10-06T15:45:12.931Z,17.87
2018-10-06T15:47:41.601Z,14.30
2018-10-06T15:50:10.331Z,14.63
2018-10-06T15:52:38.983Z,16.10
2018-10-06T15:55:07.770Z,13.97
2018-10-06T15:57:36.457Z,15.77
2018-10-06T16:00:05.221Z,15.47
2018-10-06T16:02:34.315Z,16.13
2018-10-06T16:05:03.085Z,14.60
2018-10-06T16:07:31.855Z,18.50
2018-10-06T16:10:00.558Z,17.77
2018-10-06T16:12:29.336Z,17.93
2018-10-06T16:14:57.945Z,17.10
2018-10-06T16:17:26.648Z,15.27
2018-10-06T16:19:55.366Z,15.57
2018-10-06T16:22:24.077Z,16.10
2018-10-06T16:24:52.782Z,14.50
2018-10-06T16:27:21.714Z,15.33
2018-10-06T16:29:50.569Z,14.17
2018-10-06T16:32:19.368Z,14.60
2018-10-06T16:34:48.100Z,14.20
2018-10-06T16:37:16.794Z,13.63
2018-10-06T16:39:45.601Z,13.77
2018-10-06T16:42:14.381Z,15.17
2018-10-06T16:44:43.130Z,13.80
2018-10-06T16:47:11.923Z,13.83
2018-10-06T16:49:40.842Z,17.17
2018-10-06T16:52:09.663Z,20.00
2018-10-06T16:54:38.345Z,17.30
2018-10-06T16:57:07.225Z,16.63
2018-10-06T16:59:35.958Z,15.63
2018-10-06T17:02:05.099Z,17.73
2018-10-06T17:04:35.434Z,31.57
2018-10-06T17:07:04.227Z,15.63
2018-10-06T17:09:37.771Z,22.53
2018-10-06T17:12:15.304Z,39.60
2018-10-06T17:15:04.932Z,39.17
2018-10-06T17:17:43.517Z,46.63
2018-10-06T17:20:22.861Z,68.17
2018-10-06T17:22:54.410Z,40.60
2018-10-06T17:25:29.900Z,25.27
2018-10-06T17:28:01.057Z,35.97
2018-10-06T17:30:33.105Z,22.53
2018-10-06T17:33:09.752Z,24.57
2018-10-06T17:35:42.634Z,37.30
2018-10-06T17:38:11.686Z,24.97
2018-10-06T17:40:40.757Z,31.67
2018-10-06T17:43:09.670Z,28.33
2018-10-06T17:45:38.627Z,35.17
2018-10-06T17:48:07.413Z,28.40
2018-10-06T17:50:36.352Z,25.70
2018-10-06T17:53:04.898Z,23.97
2018-10-06T17:55:33.904Z,39.17
2018-10-06T17:58:06.422Z,38.80
2018-10-06T18:00:35.154Z,44.17
2018-10-06T18:03:03.979Z,41.53
2018-10-06T18:05:32.835Z,73.83
2018-10-06T18:08:02.500Z,41.00
2018-10-06T18:10:31.293Z,32.47
2018-10-06T18:13:00.190Z,31.63
2018-10-06T18:15:28.948Z,27.37
2018-10-06T18:17:57.764Z,42.77
2018-10-06T18:20:26.683Z,36.90
2018-10-06T18:22:55.379Z,37.13
2018-10-06T18:25:24.139Z,28.13
2018-10-06T18:27:52.934Z,32.97
2018-10-06T18:30:21.776Z,31.00
2018-10-06T18:32:50.568Z,24.17
2018-10-06T18:35:19.297Z,30.97
2018-10-06T18:37:47.995Z,24.17
2018-10-06T18:40:16.791Z,28.30
2018-10-06T18:42:45.584Z,28.37
2018-10-06T18:45:14.310Z,32.50
2018-10-06T18:47:42.978Z,31.27
2018-10-06T18:50:11.944Z,24.93
2018-10-06T18:52:40.633Z,32.50
2018-10-06T18:55:09.346Z,29.47
2018-10-06T18:57:38.552Z,28.17
2018-10-06T19:00:07.862Z,26.97
2018-10-06T19:02:36.642Z,23.70
2018-10-06T19:05:05.471Z,32.87
2018-10-06T19:07:34.038Z,25.40
2018-10-06T19:10:02.766Z,24.90
2018-10-06T19:12:31.385Z,27.20
2018-10-06T19:15:00.067Z,29.70
2018-10-06T19:17:29.599Z,31.57
2018-10-06T19:19:58.421Z,30.47
2018-10-06T19:22:27.068Z,32.43
2018-10-06T19:24:55.708Z,36.00
2018-10-06T19:27:24.348Z,32.50
2018-10-06T19:29:52.978Z,29.40
2018-10-06T19:32:21.642Z,29.97
2018-10-06T19:34:50.316Z,29.00
2018-10-06T19:37:19.065Z,34.27
2018-10-06T19:39:48.045Z,34.40
2018-10-06T19:42:16.732Z,39.73
2018-10-06T19:44:45.459Z,39.43
2018-10-06T19:47:14.154Z,34.20
2018-10-06T19:49:42.815Z,34.90
2018-10-06T19:52:11.485Z,42.10
2018-10-06T19:54:40.260Z,36.67
2018-10-06T19:57:08.938Z,37.33
2018-10-06T19:59:37.712Z,40.23
2018-10-06T20:02:06.619Z,41.37
2018-10-06T20:04:35.362Z,44.23
2018-10-06T20:07:04.026Z,44.70
2018-10-06T20:09:32.736Z,49.80
2018-10-06T20:12:01.360Z,45.80
2018-10-06T20:14:30.170Z,47.77
2018-10-06T20:16:58.964Z,55.33
2018-10-06T20:19:27.737Z,55.80
2018-10-06T20:21:56.390Z,61.83
2018-10-06T20:24:25.126Z,51.20
2018-10-06T20:26:53.843Z,53.30
2018-10-06T20:29:22.849Z,59.37
2018-10-06T20:31:51.591Z,57.70
2018-10-06T20:34:20.289Z,59.70
2018-10-06T20:36:49.202Z,57.80
2018-10-06T20:39:17.951Z,65.37
2018-10-06T20:41:46.736Z,62.00
2018-10-06T20:44:18.377Z,67.87
2018-10-06T20:46:47.230Z,62.87
2018-10-06T20:49:15.950Z,60.47
2018-10-06T20:51:44.665Z,74.03
2018-10-06T20:54:13.274Z,66.30
2018-10-06T20:56:41.919Z,67.87
2018-10-06T20:59:10.535Z,79.53
2018-10-06T21:01:39.228Z,74.37
2018-10-06T21:04:07.846Z,70.17
2018-10-06T21:06:36.496Z,76.33
2018-10-06T21:09:07.981Z,85.67
2018-10-06T21:11:36.628Z,89.90
2018-10-06T21:14:05.281Z,75.00
2018-10-06T21:16:33.968Z,77.33
2018-10-06T21:19:02.663Z,79.43
2018-10-06T21:21:31.320Z,72.87
2018-10-06T21:23:59.939Z,74.43
2018-10-06T21:26:28.576Z,71.30
2018-10-06T21:28:57.227Z,78.73
2018-10-06T21:31:26.078Z,85.70
2018-10-06T21:33:54.704Z,87.57
2018-10-06T21:36:23.355Z,79.27
2018-10-06T21:38:52.094Z,83.33
2018-10-06T21:41:20.830Z,80.77
2018-10-06T21:43:49.520Z,78.23
2018-10-06T21:46:18.216Z,77.87
2018-10-06T21:48:46.934Z,75.40
2018-10-06T21:51:15.585Z,77.60
2018-10-06T21:53:44.251Z,79.10
2018-10-06T21:56:13.270Z,81.93
2018-10-06T21:58:42.010Z,82.50
2018-10-06T22:01:12.811Z,79.30
2018-10-06T22:03:41.877Z,84.20
2018-10-06T22:06:10.567Z,88.30
2018-10-06T22:08:39.459Z,90.57
2018-10-06T22:11:08.153Z,93.13
2018-10-06T22:13:36.829Z,95.47
2018-10-06T22:16:05.530Z,92.90
2018-10-06T22:18:34.182Z,102.27
2018-10-06T22:21:03.895Z,98.13
2018-10-06T22:23:32.545Z,98.03
2018-10-06T22:26:01.211Z,99.97
2018-10-06T22:28:29.898Z,102.20
2018-10-06T22:30:58.627Z,107.67
2018-10-06T22:33:27.247Z,110.17
2018-10-06T22:35:55.954Z,119.57
2018-10-06T22:38:24.612Z,117.07
2018-10-06T22:40:53.289Z,122.57
2018-10-06T22:43:21.958Z,114.43
2018-10-06T22:45:50.626Z,115.07
2018-10-06T22:48:19.275Z,116.83
2018-10-06T22:50:48.016Z,113.20
2018-10-06T22:53:16.755Z,110.10
2018-10-06T22:55:45.443Z,115.23
2018-10-06T22:58:14.172Z,121.40
2018-10-06T23:00:42.841Z,114.13
2018-10-06T23:03:11.531Z,116.10
2018-10-06T23:05:40.310Z,117.70
2018-10-06T23:08:09.067Z,116.50
2018-10-06T23:10:37.739Z,119.47
2018-10-06T23:13:06.382Z,119.87
2018-10-06T23:15:35.093Z,115.30
2018-10-06T23:18:03.747Z,109.83
2018-10-06T23:20:32.401Z,107.63
2018-10-06T23:23:01.211Z,103.67
2018-10-06T23:25:29.835Z,99.90
2018-10-06T23:27:58.490Z,95.13
2018-10-06T23:30:27.159Z,83.07
2018-10-06T23:32:56.073Z,87.10
2018-10-06T23:35:24.746Z,80.20
2018-10-06T23:37:53.386Z,74.80
2018-10-06T23:40:22.090Z,73.57
2018-10-06T23:42:50.716Z,67.10
2018-10-06T23:45:19.434Z,68.20
2018-10-06T23:47:48.168Z,73.53
2018-10-06T23:50:16.841Z,58.67
2018-10-06T23:52:45.522Z,53.67
2018-10-06T23:55:14.243Z,51.27
2018-10-06T23:57:42.900Z,55.23
